createdAt,value
2018-12-16T00:00:17.122Z,18.50
2018-12-16T00:01:17.096Z,18.20
2018-12-16T00:02:17.068Z,18.50
2018-12-16T00:03:17.042Z,18.80
2018-12-16T00:04:17.017Z,18.80
2018-12-16T00:05:16.985Z,18.70
2018-12-16T00:06:16.959Z,18.40
2018-12-16T00:07:16.929Z,19.30
2018-12-16T00:08:16.902Z,20.20
2018-12-16T00:09:16.875Z,19.40
2018-12-16T00:10:16.858Z,18.80
2018-12-16T00:11:16.824Z,19.10
2018-12-16T00:12:16.791Z,19.00
2018-12-16T00:13:16.765Z,19.30
2018-12-16T00:14:16.740Z,19.30
2018-12-16T00:15:16.718Z,18.90
2018-12-16T00:16:16.682Z,19.20
2018-12-16T00:17:16.655Z,19.50
2018-12-16T00:18:16.629Z,19.10
2018-12-16T00:19:16.600Z,18.70
2018-12-16T00:20:16.575Z,18.30
2018-12-16T00:21:16.553Z,19.70
2018-12-16T00:22:16.517Z,19.10
2018-12-16T00:23:16.491Z,19.70
2018-12-16T00:24:16.464Z,19.30
2018-12-16T00:25:16.435Z,19.30
2018-12-16T00:26:16.410Z,19.40
2018-12-16T00:27:16.381Z,19.70
2018-12-16T00:28:16.354Z,20.30
2018-12-16T00:29:16.340Z,19.70
2018-12-16T00:30:16.299Z,19.50
2018-12-16T00:31:16.272Z,19.10
2018-12-16T00:32:16.242Z,20.20
2018-12-16T00:33:16.217Z,19.30
2018-12-16T00:34:16.188Z,19.70
2018-12-16T00:35:16.242Z,19.40
2018-12-16T00:36:16.132Z,19.30
2018-12-16T00:37:16.104Z,18.80
2018-12-16T00:38:16.084Z,20.00
2018-12-16T00:39:16.049Z,18.30
2018-12-16T00:40:16.025Z,19.20
2018-12-16T00:41:15.997Z,19.90
2018-12-16T00:42:15.971Z,20.20
2018-12-16T00:43:15.954Z,20.00
2018-12-16T00:44:15.915Z,18.80
2018-12-16T00:45:15.884Z,18.50
2018-12-16T00:46:15.869Z,18.20
2018-12-16T00:47:15.848Z,18.40
2018-12-16T00:48:15.804Z,19.60
2018-12-16T00:49:15.775Z,18.80
2018-12-16T00:50:15.749Z,19.40
2018-12-16T00:51:15.729Z,19.60
2018-12-16T00:52:15.696Z,19.70
2018-12-16T00:53:15.667Z,19.70
2018-12-16T00:54:15.715Z,18.80
2018-12-16T00:55:15.613Z,20.20
2018-12-16T00:56:15.584Z,19.20
2018-12-16T00:57:15.556Z,19.60
2018-12-16T00:58:15.534Z,19.10
2018-12-16T00:59:15.503Z,19.80
2018-12-16T01:00:15.483Z,19.30
2018-12-16T01:01:15.448Z,19.00
2018-12-16T01:02:15.426Z,19.60
2018-12-16T01:03:15.405Z,20.10
2018-12-16T01:04:15.365Z,19.90
2018-12-16T01:05:15.337Z,18.90
2018-12-16T01:06:15.313Z,20.20
2018-12-16T01:07:15.284Z,19.80
2018-12-16T01:08:15.259Z,19.00
2018-12-16T01:09:15.229Z,19.00
2018-12-16T01:10:15.206Z,19.10
2018-12-16T01:11:15.174Z,18.50
2018-12-16T01:12:15.155Z,18.80
2018-12-16T01:13:15.120Z,19.30
2018-12-16T01:14:15.159Z,19.50
2018-12-16T01:15:15.072Z,19.50
2018-12-16T01:16:15.040Z,19.60
2018-12-16T01:17:15.010Z,20.20
2018-12-16T01:18:14.986Z,20.10
2018-12-16T01:19:14.951Z,19.40
2018-12-16T01:20:14.924Z,19.40
2018-12-16T01:21:14.901Z,18.70
2018-12-16T01:22:14.879Z,19.40
2018-12-16T01:23:14.844Z,19.40
2018-12-16T01:24:14.819Z,19.50
2018-12-16T01:25:14.791Z,19.00
2018-12-16T01:26:14.762Z,19.20
2018-12-16T01:27:14.735Z,19.20
2018-12-16T01:28:14.707Z,18.90
2018-12-16T01:29:14.679Z,18.10
2018-12-16T01:30:14.650Z,19.50
2018-12-16T01:31:14.627Z,19.10
2018-12-16T01:32:14.598Z,20.10
2018-12-16T01:33:14.568Z,19.10
2018-12-16T01:34:14.553Z,19.20
2018-12-16T01:35:14.517Z,18.50
2018-12-16T01:36:14.487Z,19.30
2018-12-16T01:37:14.463Z,19.00
2018-12-16T01:38:14.433Z,18.00
2018-12-16T01:39:14.406Z,18.80
2018-12-16T01:40:14.385Z,19.10
2018-12-16T01:41:14.350Z,18.70
2018-12-16T01:42:14.323Z,18.60
2018-12-16T01:43:14.297Z,19.10
2018-12-16T01:44:14.274Z,19.30
2018-12-16T01:45:14.242Z,19.50
2018-12-16T01:46:14.214Z,20.20
2018-12-16T01:47:14.201Z,18.70
2018-12-16T01:48:14.220Z,18.80
2018-12-16T01:49:14.133Z,18.90
2018-12-16T01:50:14.105Z,18.90
2018-12-16T01:51:14.079Z,19.70
2018-12-16T01:52:14.055Z,18.50
2018-12-16T01:53:14.023Z,18.30
2018-12-16T01:54:14.001Z,19.20
2018-12-16T01:55:13.969Z,19.50
2018-12-16T01:56:13.941Z,18.10
2018-12-16T01:57:13.915Z,18.90
2018-12-16T01:58:13.888Z,18.60
2018-12-16T01:59:13.858Z,19.20
2018-12-16T02:00:13.833Z,18.90
2018-12-16T02:01:13.806Z,18.70
2018-12-16T02:02:13.784Z,18.40
2018-12-16T02:03:13.759Z,18.10
2018-12-16T02:04:13.726Z,18.70
2018-12-16T02:05:13.698Z,18.20
2018-12-16T02:06:13.667Z,19.00
2018-12-16T02:07:13.640Z,18.10
2018-12-16T02:08:13.622Z,18.70
2018-12-16T02:09:13.584Z,19.40
2018-12-16T02:10:13.562Z,19.10
2018-12-16T02:11:13.531Z,18.00
2018-12-16T02:12:13.501Z,18.30
2018-12-16T02:13:13.474Z,17.70
2018-12-16T02:14:13.466Z,18.40
2018-12-16T02:15:13.433Z,18.10
2018-12-16T02:16:13.392Z,18.90
2018-12-16T02:17:13.365Z,19.20
2018-12-16T02:18:13.340Z,18.60
2018-12-16T02:19:13.311Z,19.30
2018-12-16T02:20:13.281Z,18.80
2018-12-16T02:21:13.255Z,17.50
2018-12-16T02:22:13.236Z,19.10
2018-12-16T02:23:13.201Z,17.50
2018-12-16T02:24:13.175Z,17.20
2018-12-16T02:25:13.146Z,17.30
2018-12-16T02:26:13.117Z,18.00
2018-12-16T02:27:13.093Z,18.80
2018-12-16T02:28:13.079Z,19.70
2018-12-16T02:29:13.040Z,18.10
2018-12-16T02:30:13.010Z,17.00
2018-12-16T02:31:12.987Z,17.00
2018-12-16T02:32:12.955Z,18.90
2018-12-16T02:33:12.927Z,17.20
2018-12-16T02:34:12.900Z,17.00
2018-12-16T02:35:12.874Z,16.70
2018-12-16T02:36:12.847Z,17.50
2018-12-16T02:37:12.821Z,16.50
2018-12-16T02:38:12.794Z,17.50
2018-12-16T02:39:12.763Z,17.30
2018-12-16T02:40:12.751Z,17.70
2018-12-16T02:41:12.710Z,16.50
2018-12-16T02:42:12.679Z,16.60
2018-12-16T02:43:12.651Z,17.20
2018-12-16T02:44:12.625Z,16.00
2018-12-16T02:45:12.599Z,16.60
2018-12-16T02:46:12.585Z,16.20
2018-12-16T02:47:12.543Z,16.80
2018-12-16T02:48:12.515Z,16.60
2018-12-16T02:49:12.489Z,17.20
2018-12-16T02:50:12.467Z,17.80
2018-12-16T02:51:12.433Z,15.80
2018-12-16T02:52:12.411Z,16.00
2018-12-16T02:53:12.380Z,16.30
2018-12-16T02:54:12.353Z,16.40
2018-12-16T02:55:12.324Z,16.70
2018-12-16T02:56:12.296Z,17.20
2018-12-16T02:57:12.281Z,15.90
2018-12-16T02:58:12.242Z,16.40
2018-12-16T02:59:12.222Z,17.10
2018-12-16T03:00:12.187Z,16.80
2018-12-16T03:01:12.157Z,15.90
2018-12-16T03:02:12.133Z,16.60
2018-12-16T03:03:12.104Z,17.40
2018-12-16T03:04:12.084Z,16.90
2018-12-16T03:05:12.050Z,16.60
2018-12-16T03:06:12.026Z,16.50
2018-12-16T03:07:12.002Z,17.20
2018-12-16T03:08:11.967Z,17.10
2018-12-16T03:09:11.942Z,17.30
2018-12-16T03:10:11.912Z,16.90
2018-12-16T03:11:11.888Z,15.60
2018-12-16T03:12:11.856Z,15.90
2018-12-16T03:13:11.830Z,16.50
2018-12-16T03:14:11.806Z,16.10
2018-12-16T03:15:11.776Z,16.00
2018-12-16T03:16:11.748Z,17.90
2018-12-16T03:17:11.719Z,16.30
2018-12-16T03:18:11.692Z,16.00
2018-12-16T03:19:11.673Z,17.70
2018-12-16T03:20:11.637Z,16.80
2018-12-16T03:21:11.612Z,16.90
2018-12-16T03:22:11.593Z,16.70
2018-12-16T03:23:12.455Z,16.80
2018-12-16T03:24:11.534Z,16.70
2018-12-16T03:25:11.500Z,17.00
2018-12-16T03:26:11.473Z,16.20
2018-12-16T03:27:11.448Z,16.90
2018-12-16T03:28:11.425Z,18.00
2018-12-16T03:29:11.448Z,16.20
2018-12-16T03:30:11.376Z,16.50
2018-12-16T03:31:11.344Z,17.20
2018-12-16T03:32:11.310Z,15.80
2018-12-16T03:33:11.300Z,17.20
2018-12-16T03:34:11.259Z,16.60
2018-12-16T03:35:11.228Z,16.80
2018-12-16T03:36:11.201Z,16.50
2018-12-16T03:37:11.170Z,16.70
2018-12-16T03:38:11.150Z,16.60
2018-12-16T03:39:11.120Z,16.80
2018-12-16T03:40:11.090Z,16.00
2018-12-16T03:41:11.061Z,17.20
2018-12-16T03:42:11.036Z,16.80
2018-12-16T03:43:11.008Z,16.60
2018-12-16T03:44:10.993Z,16.70
2018-12-16T03:45:10.962Z,16.50
2018-12-16T03:46:10.930Z,16.50
2018-12-16T03:47:10.903Z,17.00
2018-12-16T03:48:10.872Z,16.30
2018-12-16T03:49:10.843Z,16.90
2018-12-16T03:50:10.817Z,16.90
2018-12-16T03:51:10.791Z,16.40
2018-12-16T03:52:10.762Z,16.20
2018-12-16T03:53:10.740Z,16.40
2018-12-16T03:54:10.707Z,16.70
2018-12-16T03:55:10.687Z,16.30
2018-12-16T03:56:10.654Z,16.80
2018-12-16T03:57:10.631Z,16.80
2018-12-16T03:58:10.598Z,17.20
2018-12-16T03:59:10.572Z,17.10
2018-12-16T04:00:10.562Z,16.90
2018-12-16T04:01:10.517Z,17.70
2018-12-16T04:02:10.489Z,17.20
2018-12-16T04:03:10.471Z,16.30
2018-12-16T04:04:10.435Z,17.40
2018-12-16T04:05:10.417Z,16.00
2018-12-16T04:06:10.381Z,16.40
2018-12-16T04:07:10.352Z,17.00
2018-12-16T04:08:10.324Z,16.70
2018-12-16T04:09:10.295Z,16.80
2018-12-16T04:10:10.270Z,17.20
2018-12-16T04:11:10.242Z,17.50
2018-12-16T04:12:10.214Z,16.60
2018-12-16T04:13:10.192Z,16.80
2018-12-16T04:14:10.158Z,18.60
2018-12-16T04:15:10.136Z,16.60
2018-12-16T04:16:10.106Z,17.90
2018-12-16T04:17:10.079Z,16.70
2018-12-16T04:18:10.053Z,17.40
2018-12-16T04:19:10.024Z,17.90
2018-12-16T04:20:09.995Z,17.70
2018-12-16T04:21:09.970Z,17.40
2018-12-16T04:22:09.941Z,16.80
2018-12-16T04:23:09.926Z,16.50
2018-12-16T04:24:09.889Z,16.80
2018-12-16T04:25:09.857Z,18.10
2018-12-16T04:26:09.831Z,18.20
2018-12-16T04:27:09.804Z,17.40
2018-12-16T04:28:09.784Z,16.90
2018-12-16T04:29:09.749Z,17.90
2018-12-16T04:30:09.723Z,17.90
2018-12-16T04:31:09.694Z,18.00
2018-12-16T04:32:09.668Z,18.40
2018-12-16T04:33:09.649Z,17.60
2018-12-16T04:34:09.614Z,17.40
2018-12-16T04:35:09.585Z,18.10
2018-12-16T04:36:09.559Z,18.60
2018-12-16T04:37:09.531Z,18.10
2018-12-16T04:38:09.515Z,18.50
2018-12-16T04:39:09.479Z,18.90
2018-12-16T04:40:09.449Z,17.50
2018-12-16T04:41:09.422Z,16.90
2018-12-16T04:42:09.396Z,18.80
2018-12-16T04:43:09.367Z,17.80
2018-12-16T04:44:09.339Z,18.10
2018-12-16T04:45:09.326Z,18.20
2018-12-16T04:46:09.286Z,18.30
2018-12-16T04:47:09.260Z,17.20
2018-12-16T04:48:09.231Z,19.40
2018-12-16T04:49:09.207Z,18.60
2018-12-16T04:50:09.177Z,18.10
2018-12-16T04:51:09.149Z,18.90
2018-12-16T04:52:09.126Z,18.60
2018-12-16T04:53:09.099Z,19.00
2018-12-16T04:54:09.068Z,19.50
2018-12-16T04:55:09.041Z,18.50
2018-12-16T04:56:09.019Z,20.00
2018-12-16T04:57:08.986Z,20.50
2018-12-16T04:58:08.965Z,20.40
2018-12-16T04:59:08.932Z,19.90
2018-12-16T05:00:08.904Z,20.30
2018-12-16T05:01:08.876Z,20.20
2018-12-16T05:02:08.850Z,20.40
2018-12-16T05:03:08.823Z,19.90
2018-12-16T05:04:08.794Z,19.70
2018-12-16T05:05:08.767Z,20.60
2018-12-16T05:06:08.742Z,21.50
2018-12-16T05:07:08.715Z,19.80
2018-12-16T05:08:08.685Z,20.10
2018-12-16T05:09:08.665Z,20.90
2018-12-16T05:10:08.632Z,19.60
2018-12-16T05:11:08.605Z,21.20
2018-12-16T05:12:08.577Z,21.70
2018-12-16T05:13:08.550Z,21.10
2018-12-16T05:14:08.528Z,20.50
2018-12-16T05:15:08.496Z,21.30
2018-12-16T05:16:08.468Z,20.30
2018-12-16T05:17:08.442Z,20.10
2018-12-16T05:18:08.419Z,20.60
2018-12-16T05:19:08.391Z,19.80
2018-12-16T05:20:08.362Z,20.90
2018-12-16T05:21:08.331Z,21.30
2018-12-16T05:22:08.307Z,20.80
2018-12-16T05:23:08.278Z,20.90
2018-12-16T05:24:08.254Z,21.50
2018-12-16T05:25:08.228Z,21.80
2018-12-16T05:26:08.202Z,22.20
2018-12-16T05:27:08.169Z,21.70
2018-12-16T05:28:08.144Z,21.20
2018-12-16T05:29:08.133Z,20.80
2018-12-16T05:30:08.088Z,22.50
2018-12-16T05:31:08.061Z,22.00
2018-12-16T05:32:08.032Z,20.90
2018-12-16T05:33:08.007Z,22.00
2018-12-16T05:34:07.981Z,22.50
2018-12-16T05:35:07.952Z,22.40
2018-12-16T05:36:07.924Z,23.00
2018-12-16T05:37:07.895Z,23.10
2018-12-16T05:38:07.868Z,22.10
2018-12-16T05:39:07.842Z,23.90
2018-12-16T05:40:07.813Z,24.80
2018-12-16T05:41:07.790Z,23.30
2018-12-16T05:42:07.760Z,23.20
2018-12-16T05:43:07.734Z,24.00
2018-12-16T05:44:07.705Z,24.60
2018-12-16T05:45:07.684Z,25.10
2018-12-16T05:46:07.650Z,25.60
2018-12-16T05:47:07.624Z,25.80
2018-12-16T05:48:07.595Z,26.00
2018-12-16T05:49:07.568Z,24.60
2018-12-16T05:50:07.548Z,24.80
2018-12-16T05:51:07.514Z,25.60
2018-12-16T05:52:07.486Z,25.30
2018-12-16T05:53:07.458Z,25.40
2018-12-16T05:54:07.432Z,25.50
2018-12-16T05:55:07.406Z,26.40
2018-12-16T05:56:07.376Z,26.10
2018-12-16T05:57:07.350Z,26.50
2018-12-16T05:58:07.321Z,25.50
2018-12-16T05:59:07.293Z,25.40
2018-12-16T06:00:07.273Z,26.10
2018-12-16T06:01:07.237Z,26.80
2018-12-16T06:02:07.211Z,25.40
2018-12-16T06:03:07.185Z,25.80
2018-12-16T06:04:07.168Z,26.90
2018-12-16T06:05:07.192Z,26.00
2018-12-16T06:06:07.102Z,27.10
2018-12-16T06:07:07.074Z,26.00
2018-12-16T06:08:07.049Z,24.70
2018-12-16T06:09:07.021Z,26.60
2018-12-16T06:10:06.994Z,25.90
2018-12-16T06:11:06.966Z,26.10
2018-12-16T06:12:06.936Z,25.00
2018-12-16T06:13:06.910Z,27.00
2018-12-16T06:14:06.892Z,25.90
2018-12-16T06:15:06.852Z,26.30
2018-12-16T06:16:06.829Z,27.60
2018-12-16T06:17:06.803Z,25.30
2018-12-16T06:18:06.773Z,26.40
2018-12-16T06:19:06.750Z,27.40
2018-12-16T06:20:06.717Z,26.60
2018-12-16T06:21:06.688Z,25.50
2018-12-16T06:22:06.662Z,27.00
2018-12-16T06:23:06.636Z,25.30
2018-12-16T06:24:06.608Z,25.80
2018-12-16T06:25:06.590Z,24.80
2018-12-16T06:26:06.557Z,26.40
2018-12-16T06:27:06.529Z,25.60
2018-12-16T06:28:06.500Z,26.10
2018-12-16T06:29:06.470Z,26.60
2018-12-16T06:30:06.445Z,25.90
2018-12-16T06:31:06.418Z,27.80
2018-12-16T06:32:06.392Z,26.50
2018-12-16T06:33:06.360Z,26.20
2018-12-16T06:34:06.334Z,26.10
2018-12-16T06:35:06.307Z,27.10
2018-12-16T06:36:06.278Z,26.40
2018-12-16T06:37:06.251Z,26.80
2018-12-16T06:38:06.225Z,27.50
2018-12-16T06:39:06.196Z,26.90
2018-12-16T06:40:06.169Z,25.80
2018-12-16T06:41:06.142Z,26.30
2018-12-16T06:42:06.116Z,26.70
2018-12-16T06:43:06.089Z,26.00
2018-12-16T06:44:06.065Z,26.60
2018-12-16T06:45:06.036Z,27.10
2018-12-16T06:46:06.012Z,27.30
2018-12-16T06:47:05.977Z,26.70
2018-12-16T06:48:05.951Z,27.60
2018-12-16T06:49:05.925Z,27.30
2018-12-16T06:50:05.895Z,26.50
2018-12-16T06:51:05.871Z,27.30
2018-12-16T06:52:05.842Z,25.90
2018-12-16T06:53:05.824Z,27.80
2018-12-16T06:54:05.788Z,27.90
2018-12-16T06:55:05.768Z,27.10
2018-12-16T06:56:06.788Z,26.80
2018-12-16T06:57:05.704Z,28.80
2018-12-16T06:58:05.679Z,26.80
2018-12-16T06:59:05.663Z,26.80
2018-12-16T07:00:05.621Z,28.00
2018-12-16T07:01:05.593Z,28.80
2018-12-16T07:02:05.572Z,26.40
2018-12-16T07:03:05.539Z,26.50
2018-12-16T07:04:05.510Z,26.80
2018-12-16T07:05:05.482Z,27.00
2018-12-16T07:06:05.460Z,27.00
2018-12-16T07:07:05.428Z,27.80
2018-12-16T07:08:05.401Z,27.70
2018-12-16T07:09:05.371Z,28.50
2018-12-16T07:10:05.346Z,28.60
2018-12-16T07:11:05.404Z,28.90
2018-12-16T07:12:05.289Z,27.60
2018-12-16T07:13:05.272Z,29.00
2018-12-16T07:14:05.238Z,28.80
2018-12-16T07:15:05.208Z,30.10
2018-12-16T07:16:05.183Z,30.50
2018-12-16T07:17:05.190Z,32.00
2018-12-16T07:18:05.144Z,33.10
2018-12-16T07:19:05.102Z,33.60
2018-12-16T07:20:05.071Z,31.20
2018-12-16T07:21:05.072Z,32.30
2018-12-16T07:22:05.017Z,30.00
2018-12-16T07:23:04.992Z,30.20
2018-12-16T07:24:09.208Z,29.30
2018-12-16T07:25:04.960Z,30.60
2018-12-16T07:26:04.906Z,29.80
2018-12-16T07:27:04.879Z,31.20
2018-12-16T07:28:04.893Z,29.30
2018-12-16T07:29:04.823Z,30.50
2018-12-16T07:30:04.818Z,31.30
2018-12-16T07:31:04.785Z,31.30
2018-12-16T07:32:04.746Z,31.30
2018-12-16T07:33:04.732Z,30.20
2018-12-16T07:34:04.734Z,29.50
2018-12-16T07:35:04.659Z,29.90
2018-12-16T07:36:04.643Z,30.50
2018-12-16T07:37:04.613Z,29.30
2018-12-16T07:38:05.143Z,29.80
2018-12-16T07:39:04.874Z,29.30
2018-12-16T07:40:04.860Z,31.00
2018-12-16T07:41:04.506Z,29.70
2018-12-16T07:42:04.468Z,30.40
2018-12-16T07:43:04.995Z,28.90
2018-12-16T07:44:05.046Z,29.90
2018-12-16T07:45:04.388Z,29.40
2018-12-16T07:47:04.864Z,30.00
2018-12-16T07:48:04.312Z,30.10
2018-12-16T07:49:05.015Z,29.20
2018-12-16T07:50:04.462Z,30.40
2018-12-16T07:51:04.227Z,30.50
2018-12-16T07:52:04.234Z,29.80
2018-12-16T07:53:04.706Z,30.50
2018-12-16T07:54:04.176Z,31.10
2018-12-16T07:55:04.134Z,30.00
2018-12-16T07:56:04.403Z,31.00
2018-12-16T07:57:04.057Z,31.00
2018-12-16T07:58:04.031Z,31.30
2018-12-16T07:59:04.205Z,31.80
2018-12-16T08:00:03.983Z,30.40
2018-12-16T08:01:04.252Z,30.00
2018-12-16T08:02:04.259Z,31.70
2018-12-16T08:03:03.906Z,30.50
2018-12-16T08:04:04.210Z,29.20
2018-12-16T08:05:03.852Z,30.10
2018-12-16T08:06:03.818Z,29.40
2018-12-16T08:09:03.986Z,31.90
2018-12-16T08:10:03.703Z,29.80
2018-12-16T08:11:03.700Z,30.40
2018-12-16T08:12:03.870Z,30.10
2018-12-16T08:13:03.663Z,31.30
2018-12-16T08:14:03.602Z,29.30
2018-12-16T08:15:03.870Z,31.40
2018-12-16T08:16:03.553Z,30.00
2018-12-16T08:17:03.832Z,30.40
2018-12-16T08:18:03.810Z,30.20
2018-12-16T08:19:07.043Z,30.60
2018-12-16T08:20:03.439Z,30.10
2018-12-16T08:21:03.410Z,28.90
2018-12-16T08:22:03.400Z,30.80
2018-12-16T08:23:03.359Z,29.20
2018-12-16T08:24:03.334Z,28.50
2018-12-16T08:25:03.298Z,30.50
2018-12-16T08:26:03.275Z,30.20
2018-12-16T08:27:03.242Z,30.30
2018-12-16T08:28:03.212Z,29.90
2018-12-16T08:29:03.195Z,29.70
2018-12-16T08:30:03.166Z,30.40
2018-12-16T08:31:03.462Z,29.30
2018-12-16T08:32:03.106Z,30.10
2018-12-16T08:33:03.078Z,30.80
2018-12-16T08:34:03.052Z,29.50
2018-12-16T08:35:03.361Z,30.20
2018-12-16T08:36:02.993Z,29.90
2018-12-16T08:37:02.981Z,28.80
2018-12-16T08:38:03.682Z,28.70
2018-12-16T08:39:02.920Z,29.60
2018-12-16T08:40:02.889Z,30.20
2018-12-16T08:41:02.878Z,28.60
2018-12-16T08:42:02.833Z,30.40
2018-12-16T08:43:02.802Z,30.70
2018-12-16T08:44:02.778Z,29.50
2018-12-16T08:45:04.442Z,27.90
2018-12-16T08:46:02.722Z,30.90
2018-12-16T08:47:02.693Z,30.00
2018-12-16T08:48:02.675Z,31.20
2018-12-16T08:49:02.640Z,29.20
2018-12-16T08:50:02.619Z,26.90
2018-12-16T08:51:02.584Z,30.50
2018-12-16T08:52:02.558Z,28.10
2018-12-16T08:53:02.528Z,28.70
2018-12-16T08:54:02.510Z,29.30
2018-12-16T08:55:02.477Z,27.60
2018-12-16T08:56:02.460Z,29.30
2018-12-16T08:57:02.419Z,30.60
2018-12-16T08:58:02.393Z,28.70
2018-12-16T08:59:02.376Z,29.50
2018-12-16T09:00:02.349Z,29.60
2018-12-16T09:01:02.317Z,28.10
2018-12-16T09:02:02.293Z,31.50
2018-12-16T09:03:02.268Z,30.10
2018-12-16T09:04:02.230Z,29.30
2018-12-16T09:05:02.207Z,29.40
2018-12-16T09:06:02.185Z,29.20
2018-12-16T09:07:02.147Z,29.20
2018-12-16T09:08:02.128Z,29.60
2018-12-16T09:09:02.096Z,29.30
2018-12-16T09:10:02.068Z,28.50
2018-12-16T09:11:02.048Z,30.40
2018-12-16T09:12:02.012Z,28.80
2018-12-16T09:13:01.985Z,29.20
2018-12-16T09:14:01.956Z,30.50
2018-12-16T09:15:01.945Z,28.20
2018-12-16T09:16:01.916Z,29.50
2018-12-16T09:17:01.875Z,30.10
2018-12-16T09:18:01.858Z,29.70
2018-12-16T09:19:01.825Z,29.50
2018-12-16T09:20:01.800Z,30.20
2018-12-16T09:21:01.768Z,30.70
2018-12-16T09:22:01.741Z,30.40
2018-12-16T09:23:01.746Z,29.40
2018-12-16T09:24:01.692Z,30.10
2018-12-16T09:25:01.873Z,31.20
2018-12-16T09:26:01.970Z,30.90
2018-12-16T09:27:01.605Z,30.70
2018-12-16T09:28:01.592Z,30.50
2018-12-16T09:29:01.872Z,29.90
2018-12-16T09:31:01.801Z,30.50
2018-12-16T09:32:02.854Z,31.50
2018-12-16T09:33:01.458Z,30.20
2018-12-16T09:35:01.731Z,31.50
2018-12-16T09:36:01.574Z,30.20
2018-12-16T09:37:01.370Z,31.60
2018-12-16T09:38:01.633Z,30.60
2018-12-16T09:39:01.909Z,32.10
2018-12-16T09:40:01.259Z,32.10
2018-12-16T09:41:01.244Z,31.90
2018-12-16T09:42:01.416Z,31.70
2018-12-16T09:43:01.181Z,32.40
2018-12-16T09:44:01.463Z,31.30
2018-12-16T09:45:01.456Z,31.40
2018-12-16T09:46:01.122Z,30.60
2018-12-16T09:47:01.065Z,31.40
2018-12-16T09:48:01.037Z,32.60
2018-12-16T09:49:01.014Z,31.90
2018-12-16T09:50:01.318Z,30.30
2018-12-16T09:51:00.957Z,31.20
2018-12-16T09:52:00.928Z,31.40
2018-12-16T09:53:00.922Z,31.50
2018-12-16T09:54:00.905Z,31.20
2018-12-16T09:55:01.800Z,31.00
2018-12-16T09:56:00.836Z,32.60
2018-12-16T09:57:00.809Z,31.30
2018-12-16T09:58:01.075Z,32.20
2018-12-16T09:59:01.062Z,31.90
2018-12-16T10:00:00.719Z,32.00
2018-12-16T10:01:01.001Z,31.60
2018-12-16T10:02:00.664Z,32.50
2018-12-16T10:03:00.664Z,32.30
2018-12-16T10:04:00.603Z,30.90
2018-12-16T10:05:00.575Z,31.20
2018-12-16T10:07:00.549Z,31.10
2018-12-16T10:08:01.018Z,31.80
2018-12-16T10:09:00.807Z,32.20
2018-12-16T10:10:00.763Z,32.00
2018-12-16T10:11:00.945Z,30.90
2018-12-16T10:13:00.563Z,29.40
2018-12-16T10:14:00.667Z,32.20
2018-12-16T10:15:00.309Z,31.30
2018-12-16T10:16:00.316Z,32.10
2018-12-16T10:17:00.255Z,31.80
2018-12-16T10:18:00.552Z,30.80
2018-12-16T10:19:00.933Z,30.70
2018-12-16T10:20:00.491Z,31.90
2018-12-16T10:21:00.907Z,31.80
2018-12-16T10:22:00.132Z,31.20
2018-12-16T10:23:00.137Z,30.30
2018-12-16T10:24:00.074Z,31.50
2018-12-16T10:25:00.370Z,30.70
2018-12-16T10:26:00.965Z,32.30
2018-12-16T10:27:00.244Z,33.00
2018-12-16T10:28:00.277Z,31.50
2018-12-16T10:28:59.932Z,31.10
2018-12-16T10:30:00.116Z,32.60
2018-12-16T10:31:00.078Z,31.50
2018-12-16T10:32:00.181Z,31.30
2018-12-16T10:33:00.154Z,32.00
2018-12-16T10:34:00.117Z,31.40
2018-12-16T10:36:00.290Z,30.30
2018-12-16T10:37:00.028Z,31.50
2018-12-16T10:37:59.716Z,32.10
2018-12-16T10:38:59.670Z,31.00
2018-12-16T10:39:59.643Z,30.60
2018-12-16T10:40:59.609Z,32.20
2018-12-16T10:41:59.582Z,32.30
2018-12-16T10:42:59.559Z,30.70
2018-12-16T10:43:59.528Z,31.20
2018-12-16T10:44:59.508Z,32.40
2018-12-16T10:45:59.485Z,32.70
2018-12-16T10:46:59.453Z,30.80
2018-12-16T10:47:59.432Z,33.20
2018-12-16T10:49:04.665Z,33.00
2018-12-16T10:49:59.372Z,32.20
2018-12-16T10:50:59.341Z,31.50
2018-12-16T10:51:59.314Z,33.30
2018-12-16T10:52:59.291Z,33.90
2018-12-16T10:53:59.260Z,33.30
2018-12-16T10:54:59.235Z,35.30
2018-12-16T10:55:59.282Z,36.30
2018-12-16T10:56:59.194Z,35.00
2018-12-16T10:57:59.153Z,34.50
2018-12-16T10:58:59.136Z,33.80
2018-12-16T10:59:59.102Z,34.30
2018-12-16T11:00:59.076Z,34.20
2018-12-16T11:01:59.050Z,35.80
2018-12-16T11:02:59.029Z,35.50
2018-12-16T11:03:58.994Z,35.50
2018-12-16T11:04:58.977Z,34.50
2018-12-16T11:05:58.944Z,36.20
2018-12-16T11:06:58.916Z,36.90
2018-12-16T11:07:58.885Z,37.40
2018-12-16T11:08:58.858Z,39.40
2018-12-16T11:09:58.830Z,42.00
2018-12-16T11:10:58.804Z,38.40
2018-12-16T11:11:58.776Z,37.50
2018-12-16T11:12:58.755Z,39.20
2018-12-16T11:13:58.728Z,39.20
2018-12-16T11:14:58.696Z,37.70
2018-12-16T11:15:58.672Z,37.70
2018-12-16T11:16:58.650Z,39.40
2018-12-16T11:17:58.620Z,40.20
2018-12-16T11:18:58.592Z,42.70
2018-12-16T11:19:58.564Z,41.70
2018-12-16T11:20:58.541Z,41.30
2018-12-16T11:22:00.089Z,37.00
2018-12-16T11:22:58.494Z,36.40
2018-12-16T11:23:58.461Z,37.60
2018-12-16T11:25:05.482Z,38.00
2018-12-16T11:25:58.404Z,36.60
2018-12-16T11:26:58.390Z,34.80
2018-12-16T11:27:58.354Z,33.70
2018-12-16T11:28:58.328Z,34.40
2018-12-16T11:29:58.296Z,32.00
2018-12-16T11:30:58.276Z,34.60
2018-12-16T11:31:58.246Z,34.00
2018-12-16T11:32:58.224Z,33.00
2018-12-16T11:33:58.195Z,33.70
2018-12-16T11:34:58.167Z,33.80
2018-12-16T11:35:58.137Z,34.00
2018-12-16T11:36:58.110Z,33.90
2018-12-16T11:37:59.704Z,33.00
2018-12-16T11:38:58.058Z,33.10
2018-12-16T11:39:58.031Z,32.90
2018-12-16T11:40:58.006Z,33.50
2018-12-16T11:41:57.990Z,33.00
2018-12-16T11:42:57.950Z,33.40
2018-12-16T11:43:57.923Z,33.60
2018-12-16T11:44:57.901Z,33.20
2018-12-16T11:45:57.869Z,33.30
2018-12-16T11:46:57.844Z,33.80
2018-12-16T11:47:57.816Z,32.90
2018-12-16T11:48:57.798Z,33.90
2018-12-16T11:49:57.766Z,35.40
2018-12-16T11:50:57.800Z,35.00
2018-12-16T11:51:57.708Z,34.00
2018-12-16T11:52:57.693Z,34.80
2018-12-16T11:53:57.660Z,34.30
2018-12-16T11:54:57.629Z,34.50
2018-12-16T11:55:57.609Z,33.30
2018-12-16T11:56:57.584Z,34.10
2018-12-16T11:57:57.549Z,33.20
2018-12-16T11:58:57.529Z,33.90
2018-12-16T11:59:57.495Z,33.50
2018-12-16T12:00:57.468Z,33.00
2018-12-16T12:01:57.443Z,34.90
2018-12-16T12:02:57.419Z,33.80
2018-12-16T12:03:57.390Z,49.10
2018-12-16T12:04:57.363Z,266.00
2018-12-16T12:05:57.347Z,129.30
2018-12-16T12:06:57.308Z,52.00
2018-12-16T12:07:57.288Z,36.60
2018-12-16T12:08:57.269Z,40.40
2018-12-16T12:09:57.235Z,99.50
2018-12-16T12:10:57.203Z,113.50
2018-12-16T12:11:57.196Z,93.30
2018-12-16T12:12:57.152Z,172.60
2018-12-16T12:13:57.130Z,66.70
2018-12-16T12:14:57.106Z,70.80
2018-12-16T12:15:57.072Z,205.80
2018-12-16T12:16:57.052Z,112.20
2018-12-16T12:17:57.017Z,51.40
2018-12-16T12:18:56.993Z,41.60
2018-12-16T12:19:56.978Z,36.20
2018-12-16T12:20:56.935Z,35.30
2018-12-16T12:21:56.928Z,34.90
2018-12-16T12:22:56.885Z,33.70
2018-12-16T12:23:56.860Z,34.40
2018-12-16T12:24:56.841Z,33.90
2018-12-16T12:25:56.803Z,33.90
2018-12-16T12:26:56.784Z,34.00
2018-12-16T12:27:56.768Z,33.40
2018-12-16T12:28:56.730Z,34.00
2018-12-16T12:29:56.703Z,34.90
2018-12-16T12:30:56.672Z,43.90
2018-12-16T12:31:56.646Z,42.80
2018-12-16T12:32:56.615Z,44.80
2018-12-16T12:33:56.595Z,48.90
2018-12-16T12:34:56.568Z,58.60
2018-12-16T12:35:56.540Z,57.90
2018-12-16T12:36:56.515Z,45.10
2018-12-16T12:37:56.489Z,49.00
2018-12-16T12:38:56.464Z,69.10
2018-12-16T12:39:56.440Z,64.50
2018-12-16T12:40:56.423Z,55.30
2018-12-16T12:41:56.398Z,51.40
2018-12-16T12:42:56.353Z,49.30
2018-12-16T12:43:56.334Z,46.30
2018-12-16T12:44:56.300Z,40.70
2018-12-16T12:45:56.279Z,39.50
2018-12-16T12:46:56.255Z,39.70
2018-12-16T12:47:56.224Z,38.40
2018-12-16T12:48:56.194Z,37.60
2018-12-16T12:49:56.171Z,34.80
2018-12-16T12:50:56.152Z,34.10
2018-12-16T12:51:56.115Z,36.80
2018-12-16T12:52:56.092Z,40.50
2018-12-16T12:53:56.060Z,40.30
2018-12-16T12:54:56.041Z,39.20
2018-12-16T12:55:56.016Z,37.00
2018-12-16T12:56:55.988Z,38.90
2018-12-16T12:57:55.961Z,37.10
2018-12-16T12:58:55.998Z,39.10
2018-12-16T12:59:55.900Z,38.40